createdAt,value
2022-08-26T00:02:30.676Z,23.30
2022-08-26T00:07:32.455Z,23.40
2022-08-26T00:12:37.262Z,23.50
2022-08-26T00:17:40.350Z,23.50
2022-08-26T00:22:42.690Z,23.50
2022-08-26T00:27:44.664Z,23.40
2022-08-26T00:32:46.672Z,23.30
2022-08-26T00:37:49.134Z,23.30
2022-08-26T00:42:51.177Z,23.20
2022-08-26T00:47:57.765Z,23.00
2022-08-26T00:53:01.814Z,22.80
2022-08-26T00:58:04.807Z,22.70
2022-08-26T01:03:07.568Z,22.60
2022-08-26T01:08:14.412Z,22.50
2022-08-26T01:13:17.147Z,22.40
2022-08-26T01:18:22.249Z,22.40
2022-08-26T01:23:28.744Z,22.30
2022-08-26T01:28:33.713Z,22.20
2022-08-26T01:33:45.951Z,22.00
2022-08-26T01:38:47.827Z,22.00
2022-08-26T01:43:53.172Z,21.90
2022-08-26T01:48:58.788Z,21.80
2022-08-26T01:54:00.920Z,21.80
2022-08-26T01:59:06.926Z,21.80
2022-08-26T02:04:41.492Z,21.70
2022-08-26T02:09:44.209Z,21.60
2022-08-26T02:14:53.756Z,21.50
2022-08-26T02:19:56.201Z,21.50
2022-08-26T02:25:06.769Z,21.20
2022-08-26T02:30:11.578Z,21.20
2022-08-26T02:35:20.118Z,21.20
2022-08-26T02:40:27.296Z,21.30
2022-08-26T02:45:29.496Z,21.30
2022-08-26T02:50:31.897Z,21.30
2022-08-26T02:55:34.035Z,21.20
2022-08-26T03:00:39.757Z,21.00
2022-08-26T03:05:54.969Z,21.10
2022-08-26T03:10:56.724Z,21.00
2022-08-26T03:16:01.505Z,21.00
2022-08-26T03:21:07.628Z,21.10
2022-08-26T03:26:10.975Z,21.10
2022-08-26T03:31:13.023Z,21.00
2022-08-26T03:36:15.348Z,20.90
2022-08-26T03:41:17.967Z,20.80
2022-08-26T03:46:21.161Z,21.00
2022-08-26T03:51:25.291Z,21.10
2022-08-26T03:56:27.548Z,21.00
2022-08-26T04:01:29.832Z,20.90
2022-08-26T04:06:36.123Z,21.00
2022-08-26T04:11:39.652Z,20.90
2022-08-26T04:16:42.435Z,20.70
2022-08-26T04:21:46.391Z,20.70
2022-08-26T04:26:48.769Z,20.50
2022-08-26T04:31:55.264Z,20.40
2022-08-26T04:36:58.218Z,20.30
2022-08-26T04:42:00.570Z,20.40
2022-08-26T04:47:04.661Z,20.40
2022-08-26T04:52:06.402Z,20.20
2022-08-26T04:57:09.863Z,20.30
2022-08-26T05:02:11.845Z,20.60
2022-08-26T05:07:13.588Z,20.60
2022-08-26T05:12:19.387Z,20.60
2022-08-26T05:17:21.236Z,20.80
2022-08-26T05:22:22.978Z,21.20
2022-08-26T05:27:24.717Z,22.50
2022-08-26T05:32:27.443Z,23.90
2022-08-26T05:37:30.936Z,25.00
2022-08-26T05:42:33.426Z,25.90
2022-08-26T05:47:35.818Z,26.80
2022-08-26T05:52:37.818Z,27.50
2022-08-26T05:57:42.762Z,28.30
2022-08-26T06:02:44.721Z,28.40
2022-08-26T06:08:08.894Z,28.30
2022-08-26T06:13:12.512Z,28.30
2022-08-26T06:18:16.683Z,29.60
2022-08-26T06:23:37.400Z,30.80
2022-08-26T06:28:43.759Z,30.90
2022-08-26T06:33:47.461Z,31.70
2022-08-26T06:38:50.452Z,31.10
2022-08-26T06:43:52.366Z,31.60
2022-08-26T06:48:54.955Z,32.40
2022-08-26T06:54:00.062Z,32.70
2022-08-26T06:59:02.081Z,32.60
2022-08-26T07:04:10.512Z,32.90
2022-08-26T07:09:12.705Z,32.70
2022-08-26T07:14:16.756Z,33.10
2022-08-26T07:19:29.773Z,32.50
2022-08-26T07:24:37.326Z,31.50
2022-08-26T07:29:40.093Z,30.10
2022-08-26T07:34:42.449Z,30.90
2022-08-26T07:39:45.172Z,32.70
2022-08-26T07:44:47.503Z,34.60
2022-08-26T07:49:49.241Z,34.80
2022-08-26T07:54:56.437Z,35.60
2022-08-26T07:59:59.405Z,36.00
2022-08-26T08:05:01.203Z,35.60
2022-08-26T08:10:09.616Z,35.70
2022-08-26T08:15:15.379Z,37.00
2022-08-26T08:20:17.329Z,37.50
2022-08-26T08:25:20.152Z,37.80
2022-08-26T08:30:23.275Z,37.80
2022-08-26T08:35:26.406Z,37.60
2022-08-26T08:40:29.344Z,36.60
2022-08-26T08:45:43.118Z,35.90
2022-08-26T08:51:07.485Z,35.10
2022-08-26T08:56:28.864Z,34.00
2022-08-26T09:01:45.396Z,35.90
2022-08-26T09:06:49.728Z,37.30
2022-08-26T09:11:52.271Z,38.40
2022-08-26T09:17:10.196Z,36.40
2022-08-26T09:22:29.497Z,33.80
2022-08-26T09:27:50.403Z,32.00
2022-08-26T09:33:10.158Z,31.30
2022-08-26T09:38:34.064Z,31.10
2022-08-26T09:43:35.855Z,30.80
2022-08-26T09:48:41.092Z,30.60
2022-08-26T09:54:01.771Z,30.60
2022-08-26T09:59:08.284Z,30.60
2022-08-26T10:04:30.723Z,32.70
2022-08-26T10:09:40.514Z,32.60
2022-08-26T10:14:49.670Z,30.50
2022-08-26T10:20:04.007Z,29.40
2022-08-26T10:25:12.997Z,30.20
2022-08-26T10:30:19.152Z,30.90
2022-08-26T10:35:21.307Z,30.00
2022-08-26T10:40:45.331Z,29.50
2022-08-26T10:46:00.275Z,29.60
2022-08-26T10:51:04.175Z,29.20
2022-08-26T10:56:15.736Z,29.30
2022-08-26T11:01:57.638Z,29.10
2022-08-26T11:07:35.354Z,29.20
2022-08-26T11:12:37.184Z,29.30
2022-08-26T11:17:45.254Z,29.30
2022-08-26T11:22:48.280Z,29.60
2022-08-26T11:27:51.690Z,30.30
2022-08-26T11:32:57.177Z,31.40
2022-08-26T11:38:27.102Z,33.70
2022-08-26T11:43:30.246Z,33.10
2022-08-26T11:48:33.326Z,32.40
2022-08-26T11:53:38.473Z,32.90
2022-08-26T11:58:44.746Z,32.40
2022-08-26T12:03:51.440Z,31.60
2022-08-26T12:08:57.932Z,32.80
2022-08-26T12:14:03.388Z,35.10
2022-08-26T12:19:32.753Z,36.40
2022-08-26T12:24:35.728Z,35.10
2022-08-26T12:29:37.531Z,36.20
2022-08-26T12:34:43.671Z,37.20
2022-08-26T12:39:46.213Z,36.60
2022-08-26T12:45:00.678Z,36.30
2022-08-26T12:50:19.460Z,37.20
2022-08-26T12:55:26.442Z,38.00
2022-08-26T13:00:36.869Z,37.80
2022-08-26T13:05:38.640Z,37.80
2022-08-26T13:10:46.576Z,37.90
2022-08-26T13:15:48.326Z,34.70
2022-08-26T13:20:50.069Z,32.90
2022-08-26T13:25:52.167Z,31.60
2022-08-26T13:30:53.927Z,30.00
2022-08-26T13:35:55.717Z,29.20
2022-08-26T13:40:59.719Z,29.10
2022-08-26T13:46:01.847Z,27.60
2022-08-26T13:51:09.000Z,24.20
2022-08-26T13:56:11.224Z,23.70
2022-08-26T14:01:13.774Z,23.00
2022-08-26T14:06:16.533Z,22.90
2022-08-26T14:11:21.389Z,22.70
2022-08-26T14:16:28.994Z,22.90
2022-08-26T14:21:33.569Z,22.90
2022-08-26T14:26:35.420Z,23.30
2022-08-26T14:31:37.785Z,23.40
2022-08-26T14:36:39.891Z,23.20
2022-08-26T14:41:53.859Z,22.90
2022-08-26T14:46:57.090Z,23.00
2022-08-26T14:51:59.236Z,22.90
2022-08-26T14:57:03.777Z,22.90
2022-08-26T15:02:07.627Z,22.30
2022-08-26T15:07:09.834Z,22.30
2022-08-26T15:12:14.569Z,22.30
2022-08-26T15:17:16.311Z,22.30
2022-08-26T15:22:18.736Z,22.40
2022-08-26T15:27:20.954Z,22.60
2022-08-26T15:32:22.846Z,22.60
2022-08-26T15:37:24.643Z,22.80
2022-08-26T15:42:26.395Z,22.90
2022-08-26T15:47:28.176Z,22.80
2022-08-26T15:52:30.272Z,22.70
2022-08-26T15:57:32.134Z,22.40
2022-08-26T16:02:35.051Z,22.30
2022-08-26T16:07:37.033Z,21.90
2022-08-26T16:12:38.773Z,22.00
2022-08-26T16:17:40.701Z,22.00
2022-08-26T16:22:42.784Z,22.00
2022-08-26T16:27:44.499Z,22.10
2022-08-26T16:32:46.678Z,22.00
2022-08-26T16:37:48.421Z,22.10
2022-08-26T16:42:50.462Z,22.00
2022-08-26T16:47:52.869Z,21.90
2022-08-26T16:52:55.761Z,22.20
2022-08-26T16:57:57.624Z,22.20
2022-08-26T17:03:01.213Z,22.20
2022-08-26T17:08:04.338Z,22.30
2022-08-26T17:13:06.434Z,22.40
2022-08-26T17:18:08.989Z,22.30
2022-08-26T17:23:10.850Z,22.40
2022-08-26T17:28:13.635Z,22.40
2022-08-26T17:33:17.126Z,22.30
2022-08-26T17:38:24.401Z,22.20
2022-08-26T17:43:26.791Z,21.90
2022-08-26T17:48:28.844Z,21.90
2022-08-26T17:53:30.602Z,22.00
2022-08-26T17:58:32.345Z,22.00
2022-08-26T18:03:37.067Z,22.00
2022-08-26T18:08:40.113Z,22.00
2022-08-26T18:13:47.020Z,21.90
2022-08-26T18:18:53.074Z,21.90
2022-08-26T18:23:55.880Z,21.90
2022-08-26T18:28:57.837Z,21.80
2022-08-26T18:34:01.473Z,21.80
2022-08-26T18:39:05.255Z,21.90
2022-08-26T18:44:12.953Z,22.20
2022-08-26T18:49:18.043Z,22.10
2022-08-26T18:59:28.473Z,22.20
2022-08-26T19:04:32.337Z,22.20
2022-08-26T19:09:34.611Z,22.20
2022-08-26T19:14:37.860Z,22.30
2022-08-26T19:19:39.651Z,22.20
2022-08-26T19:24:41.382Z,22.10
2022-08-26T19:29:43.207Z,21.90
2022-08-26T19:34:44.933Z,21.80
2022-08-26T19:39:47.670Z,22.00
2022-08-26T19:45:24.750Z,22.00
2022-08-26T19:50:29.396Z,22.00
2022-08-26T19:55:31.313Z,22.00
2022-08-26T20:00:34.540Z,22.00
2022-08-26T20:05:36.322Z,21.60
2022-08-26T20:10:39.092Z,21.60
2022-08-26T20:15:43.111Z,21.30
2022-08-26T20:21:03.652Z,21.30
2022-08-26T20:26:05.612Z,21.50
2022-08-26T20:31:08.077Z,21.50
2022-08-26T20:36:12.008Z,21.50
2022-08-26T20:41:14.310Z,21.50
2022-08-26T20:46:18.831Z,21.40
2022-08-26T20:51:26.435Z,21.40
2022-08-26T20:56:28.221Z,21.40
2022-08-26T21:01:34.570Z,21.40
2022-08-26T21:06:38.178Z,21.50
2022-08-26T21:11:41.410Z,21.50
2022-08-26T21:16:44.149Z,21.40
2022-08-26T21:21:48.177Z,21.40
2022-08-26T21:26:49.946Z,21.20
2022-08-26T21:31:51.708Z,21.00
2022-08-26T21:36:53.565Z,20.70
2022-08-26T21:41:55.337Z,20.80
2022-08-26T21:46:57.074Z,20.70
2022-08-26T21:51:58.819Z,20.70
2022-08-26T21:57:00.731Z,20.60
2022-08-26T22:02:02.673Z,20.60
2022-08-26T22:07:04.983Z,20.60
2022-08-26T22:12:10.130Z,20.60
2022-08-26T22:17:12.458Z,20.60
2022-08-26T22:22:14.528Z,20.50
2022-08-26T22:27:16.263Z,20.50
2022-08-26T22:32:18.556Z,20.60
2022-08-26T22:37:20.328Z,20.70
2022-08-26T22:42:22.366Z,20.60
2022-08-26T22:47:24.451Z,20.50
2022-08-26T22:52:26.309Z,20.60
2022-08-26T22:57:28.058Z,20.60
2022-08-26T23:02:29.781Z,20.50
2022-08-26T23:07:31.516Z,20.50
2022-08-26T23:12:36.827Z,20.60
2022-08-26T23:17:39.551Z,20.60
2022-08-26T23:22:41.305Z,20.50
2022-08-26T23:27:43.473Z,20.40
2022-08-26T23:32:45.326Z,20.30
2022-08-26T23:37:51.029Z,20.40
2022-08-26T23:42:54.884Z,20.40
2022-08-26T23:47:56.744Z,20.30
2022-08-26T23:53:08.702Z,20.40
2022-08-26T23:58:11.052Z,20.40
